Flight Track Log - Related Links

Times and Time Zones

All times are in EDT time to prevent confusion due to time zone crossing. See the CPZ5750 flight status page for this flight to view local times or setup timezone preferences in your user account.

Time Position Orientation Groundspeed Altitude Reporting Facility
EDT Latitude Longitude Course Direction KTS MPH feet Rate Location/Type
Fri 04:31:35 PM 44.8833 -93.1667 70° East 166 191 2,000  Level Minneapolis TRACON
Fri 04:32:37 PM 44.8708 -93.0811 102° East 222 255 3,300 1,935 Climbing Minneapolis Center
Fri 04:33:39 PM 44.9267 -93.0239 36° Northeast 293 337 6,000 2,371 Climbing Minneapolis Center
Fri 04:34:00 PM 45.0420 -92.6115 68° East  Level FlightAware Approximate
Fri 04:34:41 PM 45.0100 -93.0119 North 302 348 8,200  Level Minneapolis Center
Fri 04:35:00 PM 45.0852 -92.4594 70° East  Level FlightAware Approximate
Fri 04:35:43 PM 45.0789 -92.9417 36° Northeast 323 372 10,700  Level Minneapolis Center
Fri 04:36:00 PM 45.1199 -92.3038 70° East  Level FlightAware Approximate
Fri 04:36:45 PM 45.1447 -92.8306 50° Northeast 367 422 12,800  Level Minneapolis Center
Fri 04:37:47 PM 45.2247 -92.6964 50° Northeast 371 427 16,300 3,000 Climbing Minneapolis Center
Fri 04:38:49 PM 45.2625 -92.5706 67° East 356 410 19,000 2,177 Climbing Minneapolis Center
Fri 04:39:51 PM 45.2842 -92.4272 78° East 370 426 20,800 1,548 Climbing Minneapolis Center
Fri 04:40:53 PM 45.3044 -92.2764 79° East 386 444 22,200 1,161 Climbing Minneapolis Center
Fri 04:41:55 PM 45.3167 -92.1119 84° East 416 479 23,200 1,210 Climbing Minneapolis Center
Fri 04:42:57 PM 45.3042 -91.9411 96° East 431 496 24,700 1,597 Climbing Minneapolis Center
Fri 04:43:59 PM 45.2922 -91.7347 95° East 438 504 26,500 1,452 Climbing Minneapolis Center
Fri 04:45:01 PM 45.2819 -91.5592 95° East 445 512 27,700 1,065 Climbing Minneapolis Center
Fri 04:46:03 PM 45.2692 -91.3817 96° East 450 518 28,700 1,065 Climbing Minneapolis Center
Fri 04:47:05 PM 45.2572 -91.1842 95° East 458 527 29,900 1,065 Climbing Minneapolis Center
Fri 04:48:07 PM 45.2456 -91.0042 95° East 460 529 30,900 1,065 Climbing Minneapolis Center
Fri 04:49:09 PM 45.2347 -90.8239 95° East 460 529 32,100 1,258 Climbing Minneapolis Center
Fri 04:50:11 PM 45.2219 -90.6469 96° East 456 525 33,500 1,113 Climbing Minneapolis Center
Fri 04:51:13 PM 45.2097 -90.4747 96° East 447 514 34,400 726 Climbing Minneapolis Center
Fri 04:52:15 PM 45.1961 -90.2675 95° East 442 509 35,000 290 Climbing Minneapolis Center
Fri 04:53:17 PM 45.1831 -90.0911 96° East 449 517 35,000  Level Minneapolis Center
Fri 04:54:20 PM 45.1708 -89.9175 96° East 448 516 35,000  Level Minneapolis Center
Fri 04:55:22 PM 45.1569 -89.7436 96° East 447 514 35,000  Level Minneapolis Center
Fri 04:56:24 PM 45.1439 -89.5700 96° East 446 513 35,000  Level Minneapolis Center
Fri 04:57:26 PM 45.1278 -89.3633 96° East 443 510 35,000  Level Minneapolis Center
Fri 04:58:28 PM 45.1136 -89.1917 97° East 442 509 35,000  Level Minneapolis Center
Fri 04:59:42 PM 45.0992 -89.0158 97° East 450 518 35,000  Level Minneapolis Center
Fri 05:00:45 PM 45.0819 -88.8075 97° East 448 516 35,000  Level Minneapolis Center
Fri 05:01:59 PM 45.0667 -88.6211 97° East 447 514 35,000  Level Minneapolis Center
Fri 05:03:01 PM 45.0481 -88.4161 97° East 441 507 35,000  Level Minneapolis Center
Fri 05:04:03 PM 45.0331 -88.2439 97° East 442 509 35,000  Level Minneapolis Center
Fri 05:05:05 PM 45.0164 -88.0692 98° East 448 516 35,000  Level Minneapolis Center
Fri 05:06:07 PM 44.9978 -87.8597 97° East 451 519 35,000  Level Minneapolis Center
Fri 05:07:09 PM 44.9814 -87.6847 97° East 450 518 35,000  Level Minneapolis Center
Fri 05:08:10 PM 44.9642 -87.5083 98° East 452 520 35,000  Level Minneapolis Center
Fri 05:09:12 PM 44.9464 -87.3289 98° East 461 531 35,000  Level Minneapolis Center
Fri 05:10:14 PM 44.9289 -87.1528 98° East 458 527 35,000  Level Minneapolis Center
Fri 05:11:16 PM 44.9103 -86.9728 98° East 461 531 35,000  Level Minneapolis Center
Fri 05:12:18 PM 44.8919 -86.7925 98° East 465 535 35,000  Level Minneapolis Center
Fri 05:13:20 PM 44.8719 -86.5906 98° East 468 539 35,000 387 Level Minneapolis Center
Fri 05:14:22 PM 44.8531 -86.4125 98° East 464 534 35,800 780 Climbing Minneapolis Center
Fri 05:15:23 PM 44.8381 -86.2694 98° East 462 532 36,600 581 Climbing Minneapolis Center
Fri 05:16:26 PM 44.8150 -86.0589 99° East 456 525 37,000 192 Climbing Minneapolis Center
Fri 05:17:28 PM 44.7903 -85.8406 99° East 465 535 37,000  Level Minneapolis Center
Fri 05:18:31 PM 44.7697 -85.6561 99° East 474 545 37,000  Level Minneapolis Center
Fri 05:19:33 PM 44.7503 -85.4794 99° East 473 544 37,000  Level Minneapolis Center
Fri 05:20:35 PM 44.7297 -85.2994 99° East 470 541 37,000  Level Minneapolis Center
Fri 05:21:37 PM 44.7044 -85.0847 99° East 465 535 37,000  Level Minneapolis Center
Fri 05:22:38 PM 44.6828 -84.9042 100° East 467 537 37,000  Level Minneapolis Center
Fri 05:23:40 PM 44.6606 -84.7239 100° East 471 542 37,000  Level Minneapolis Center
Fri 05:24:42 PM 44.6389 -84.5447 100° East 468 539 37,000  Level Minneapolis Center
Fri 05:25:44 PM 44.6175 -84.3669 100° East 464 534 37,000  Level Minneapolis Center
Fri 05:26:46 PM 44.5939 -84.1892 101° East 464 534 37,000  Level Minneapolis Center
Fri 05:27:47 PM 44.5758 -84.0453 100° East 467 537 37,000  Level Minneapolis Center
Fri 05:28:50 PM 44.5436 -83.7919 100° East 472 543 37,000  Level Minneapolis Center
Fri 05:29:52 PM 44.5208 -83.6128 100° East 471 542 37,000  Level Minneapolis Center
Fri 05:30:53 PM 44.4961 -83.4342 101° East 468 539 37,000  Level Minneapolis Center
Fri 05:31:55 PM 44.4728 -83.2553 100° East 469 540 37,000  Level Minneapolis Center
Fri 05:32:57 PM 44.4475 -83.0786 101° East 466 536 37,000  Level Minneapolis Center
Fri 05:33:59 PM 44.4244 -82.9019 100° East 464 534 37,000  Level Minneapolis Center
Fri 05:35:01 PM 44.3944 -82.6903 101° East 464 534 37,000  Level Minneapolis Center
Fri 05:35:37 PM 44.3667 -82.5667 107° East 470 541 37,000  Level Toronto Center
Fri 05:36:37 PM 44.3333 -82.3833 104° East 470 541 37,000  Level Toronto Center
Fri 05:37:37 PM 44.3000 -82.2167 106° East 460 529 37,000  Level Toronto Center
Fri 05:38:37 PM 44.2667 -82.0500 106° East 460 529 37,000  Level Toronto Center
Fri 05:39:37 PM 44.2333 -81.8833 106° East 460 529 37,000  Level Toronto Center
Fri 05:40:37 PM 44.2000 -81.7333 107° East 460 529 37,000  Level Toronto Center
Fri 05:41:37 PM 44.1500 -81.5333 109° East 460 529 37,000  Level Toronto Center
Fri 05:42:37 PM 44.1000 -81.3667 113° Southeast 460 529 37,000  Level Toronto Center
Fri 05:43:37 PM 44.0667 -81.2167 107° East 460 529 37,000  Level Toronto Center
Fri 05:44:37 PM 44.0167 -81.0500 113° Southeast 460 529 37,000  Level Toronto Center
Fri 05:45:37 PM 43.9667 -80.8833 113° Southeast 460 529 37,000  Level Toronto Center
Fri 05:46:37 PM 43.9500 -80.7167 98° East 460 529 37,000  Level Toronto Center
Fri 05:47:37 PM 43.9000 -80.5333 111° Southeast 460 529 37,000  Level Toronto Center
Fri 05:48:37 PM 43.8500 -80.3667 113° Southeast 460 529 37,000  Level Toronto Center
Fri 05:49:37 PM 43.8333 -80.1833 97° East 470 541 37,000  Level Toronto Center
Fri 05:50:37 PM 43.8000 -80.0333 107° East 470 541 37,000  Level Toronto Center
Fri 05:51:37 PM 43.7833 -79.8333 97° East 470 541 37,000  Level Toronto Center
Fri 05:52:37 PM 43.7500 -79.6500 104° East 470 541 37,000  Level Toronto Center
Fri 05:53:37 PM 43.7333 -79.4667 97° East 490 564 37,000  Level Toronto Center
Fri 05:54:37 PM 43.7000 -79.2833 104° East 460 529 37,000  Level Toronto Center
Fri 05:55:37 PM 43.6500 -79.1500 117° Southeast 460 529 37,000  Level Toronto Center
Fri 05:56:37 PM 43.6000 -78.9833 112° Southeast 460 529 37,000  Level Toronto Center
Fri 05:57:37 PM 43.5333 -78.8333 121° Southeast 460 529 37,000  Level Toronto Center
Fri 05:58:37 PM 43.4833 -78.6667 112° Southeast 450 518 37,000  Level Toronto Center
Fri 05:59:37 PM 43.4500 -78.5000 105° East 460 529 37,000 -100 Level Toronto Center
Fri 06:00:37 PM 43.3833 -78.3500 121° Southeast 460 529 36,800 -471 Descending Toronto Center
Fri 06:01:19 PM 43.3667 -78.2703 106° East 457 526 36,200 -1,059 Descending Cleveland Center
Fri 06:02:19 PM 43.2969 -78.1217 123° Southeast 452 520 35,000 -1,150 Descending Cleveland Center
Fri 06:03:19 PM 43.2250 -77.9819 125° Southeast 447 514 33,900 -1,100 Descending Cleveland Center
Fri 06:04:19 PM 43.1489 -77.8372 126° Southeast 457 526 32,800 -1,150 Descending Cleveland Center
Fri 06:05:19 PM 43.0703 -77.6928 127° Southeast 467 537 31,600 -1,200 Descending Cleveland Center
Fri 06:06:19 PM 42.9828 -77.5381 128° Southeast 472 543 30,400 -1,200 Descending Cleveland Center
Fri 06:07:19 PM 42.9344 -77.3700 111° Southeast 460 529 29,200 -435 Descending Cleveland Center
Fri 06:09:32 PM 42.8858 -76.9633 99° East 486 559 29,000 -62 Descending Boston Center
Fri 06:10:32 PM 42.8658 -76.7778 98° East 492 566 29,000  Level Boston Center
Fri 06:11:32 PM 42.8469 -76.6119 99° East 486 559 29,000  Level Boston Center
Fri 06:12:32 PM 42.8075 -76.4339 107° East 486 559 29,000 -45 Level Boston Center
Fri 06:13:44 PM 42.7778 -76.2111 100° East 497 572 28,900 -545 Descending Boston Center
Fri 06:14:44 PM 42.7614 -76.0686 99° East 490 564 27,800 -1,900 Descending Boston Center
Fri 06:15:44 PM 42.7431 -75.8528 97° East 480 552 25,100 -2,300 Descending Boston Center
Fri 06:16:44 PM 42.7356 -75.6828 93° East 468 539 23,200 -1,650 Descending Boston Center
Fri 06:17:44 PM 42.7269 -75.5464 95° East 463 533 21,800 -1,750 Descending Boston Center
Fri 06:18:44 PM 42.7194 -75.3511 93° East 446 513 19,700 -1,950 Descending Boston Center
Fri 06:19:44 PM 42.6983 -75.1947 100° East 425 489 17,900 -1,700 Descending Boston Center
Fri 06:20:44 PM 42.6708 -75.0436 104° East 419 482 16,300 -1,700 Descending Boston Center
Fri 06:21:44 PM 42.6469 -74.8989 103° East 401 461 14,500 -1,818 Descending Boston Center
Fri 06:22:56 PM 42.6208 -74.7425 103° East 391 450 12,300 -1,569 Descending Boston Center
Fri 06:23:54 PM 42.5906 -74.5833 104° East 368 423 11,100 -1,160 Descending Boston Center
Fri 06:24:55 PM 42.6014 -74.4542 83° East 341 392 10,000 -1,328 Descending Boston Center
Fri 06:25:56 PM 42.6467 -74.3653 55° Northeast 305 351 8,400 -1,534 Descending Boston Center
Fri 06:27:08 PM 42.7006 -74.2594 55° Northeast 300 345 6,600 -1,795 Descending Boston Center
Fri 06:28:03 PM 42.7522 -74.1536 56° Northeast 294 338 4,600 -1,759 Descending Boston Center
Fri 06:29:04 PM 42.7972 -74.0728 53° Northeast 274 315 3,200 -768 Descending Boston Center
Fri 06:30:08 PM 42.8233 -73.9969 65° Northeast 262 302 3,000 -545 Descending Boston Center
Fri 06:31:05 PM 42.8350 -73.9039 80° East 214 246 2,100 -947 Descending Boston Center

Login

Don't have an account? Register now (free) for customized features, flight alerts, and more!